KNBG/NBG METAR and TAF weather

Enter ICAO airport designator
Station Type Date Time Source
KNBG METAR 2019/06/16 11:55 UTC NOAA

KNBG 161155Z AUTO 00000KT 6SM BR FEW018 24/24 A3000 RMK AO2 SLP157 70008 T02440244 10256 20228 53010 $


Station Type Date Time Source
KNBG Decoded METAR 2019/06/16 11:55 UTC NOAA

NEW ORLEANS NAVAL AIR STN, LA, United States (KNBG) 29-50N 90-01W
Jun 16, 2019 - 07:55 AM EDT / 2019.06.16 1155 UTC
Wind: Calm:0
Visibility: 6 mile(s):0
Sky conditions: mostly clear
Weather: mist
Temperature: 75.9 F (24.4 C)
Dew Point: 75.9 F (24.4 C)
Relative Humidity: 100%
Pressure (altimeter): 30 in. Hg (1015 hPa)
Pressure tendency: 0.03 inches (1.0 hPa) higher than three hours ago
ob: KNBG 161155Z AUTO 00000KT 6SM BR FEW018 24/24 A3000 RMK AO2 SLP157 70008 T02440244 10256 20228 53010
cycle: 12

Station Type Date Time Source
KNBG TAF 2019/06/16 07:59 UTC NOAA

TAF KNBG 1607/1707 VRB05KT 9999 FEW010 SCT020 BKN030 QNH2984INS
BECMG 1614/1616 18006KT FEW020 QNH2990INS
BECMG 1700/1702 16008KT FEW010 SCT020 BKN035 QNH2992INS AUTOMATED SENSOR METWATCH 1607 TIL 1614 T22/1609Z T33/1618Z FN00199

Example: see airport list